Time;durP1;ratioP1;P1;durP2;ratioP2;P2;SDS_P1;SDS_P2;PMS_P1;PMS_P2;Temp;Humidity;BMP_temperature;BMP_pressure;BME280_temperature;BME280_humidity;BME280_pressure;Samples;Min_cycle;Max_cycle;Signal;HPM_P1;HPM_P2
2022/06/13 00:00:32;;;;;;;24.60;12.57;;;;;;;13.68;73.36;101941.22;5079799;28;20024;-58
2022/06/13 00:02:58;;;;;;;22.52;11.68;;;;;;;13.68;73.58;101945.97;5093513;28;20121;-57
2022/06/13 00:05:24;;;;;;;20.67;11.90;;;;;;;13.67;73.22;101949.84;5088072;28;20101;-55
2022/06/13 00:07:50;;;;;;;22.25;12.18;;;;;;;13.62;73.85;101944.34;5073017;28;20083;-58
2022/06/13 00:10:15;;;;;;;19.98;11.77;;;;;;;13.57;73.41;101939.69;5087080;28;20367;-60
2022/06/13 00:12:42;;;;;;;20.85;11.30;;;;;;;13.50;74.33;101947.59;5087309;28;20100;-57
2022/06/13 00:15:09;;;;;;;21.92;11.85;;;;;;;13.38;74.77;101934.09;5089475;28;20474;-57
2022/06/13 00:17:35;;;;;;;21.70;11.35;;;;;;;13.36;75.04;101933.56;5080476;28;20175;-57
2022/06/13 00:20:00;;;;;;;23.05;12.55;;;;;;;13.29;74.55;101931.16;5083390;28;20052;-57
2022/06/13 00:22:26;;;;;;;20.42;11.57;;;;;;;13.21;75.40;101941.00;5081586;28;20031;-56
2022/06/13 00:24:51;;;;;;;21.05;11.73;;;;;;;13.21;75.44;101938.22;5071653;28;20029;-56
2022/06/13 00:27:16;;;;;;;23.77;12.95;;;;;;;13.17;75.92;101936.34;5087619;28;20041;-56
2022/06/13 00:29:44;;;;;;;23.02;11.77;;;;;;;13.14;76.34;101934.94;5088024;28;20024;-56
2022/06/13 00:32:09;;;;;;;22.55;13.35;;;;;;;13.14;76.29;101934.94;5092619;28;20016;-57
2022/06/13 00:34:35;;;;;;;21.20;12.52;;;;;;;13.13;76.28;101943.59;5091807;28;20051;-57
2022/06/13 00:37:00;;;;;;;21.08;12.98;;;;;;;13.08;76.42;101950.84;5092485;28;20358;-56
2022/06/13 00:39:25;;;;;;;21.88;12.40;;;;;;;13.11;76.57;101935.56;5092320;28;20032;-56
2022/06/13 00:41:50;;;;;;;23.23;12.65;;;;;;;13.18;76.18;101941.59;5075494;28;20136;-55
2022/06/13 00:44:21;;;;;;;21.73;12.57;;;;;;;13.20;77.13;101925.44;5072177;28;20024;-57
2022/06/13 00:46:46;;;;;;;21.17;12.30;;;;;;;13.28;76.62;101923.94;5072356;28;20079;-61
2022/06/13 00:49:17;;;;;;;23.85;13.35;;;;;;;13.22;76.51;101923.19;5086257;28;20512;-55
2022/06/13 00:51:46;;;;;;;22.48;12.73;;;;;;;13.23;76.68;101919.28;5089432;28;20063;-55
2022/06/13 00:54:15;;;;;;;22.88;12.85;;;;;;;13.26;76.42;101913.13;5089861;28;20028;-56
2022/06/13 00:56:40;;;;;;;22.23;12.02;;;;;;;13.27;76.89;101906.44;5086869;28;20043;-55
2022/06/13 00:59:12;;;;;;;23.58;12.70;;;;;;;13.33;76.85;101906.38;5090623;28;20478;-57
2022/06/13 01:01:38;;;;;;;22.45;13.63;;;;;;;13.36;76.97;101914.13;5090180;28;20032;-56
2022/06/13 01:04:05;;;;;;;21.50;13.35;;;;;;;13.42;76.28;101921.28;5090953;28;20024;-56
2022/06/13 01:06:35;;;;;;;22.25;12.38;;;;;;;13.43;76.67;101911.81;5091710;28;20024;-57
2022/06/13 01:09:04;;;;;;;22.75;13.80;;;;;;;13.43;76.08;101902.66;5091839;28;20068;-56
2022/06/13 01:11:30;;;;;;;22.23;12.70;;;;;;;13.50;76.49;101906.72;5090179;28;20034;-54
2022/06/13 01:14:27;;;;;;;21.50;12.32;;;;;;;13.52;75.74;101904.44;5092151;28;20028;-59
2022/06/13 01:17:11;;;;;;;21.20;12.85;;;;;;;13.55;75.98;101909.44;5082832;28;20459;-53
2022/06/13 01:19:54;;;;;;;22.05;13.10;;;;;;;13.56;76.01;101913.00;5071489;28;20489;-54
2022/06/13 01:22:38;;;;;;;21.80;12.98;;;;;;;13.53;76.01;101920.00;5071480;28;20497;-55
2022/06/13 01:25:20;;;;;;;22.88;13.55;;;;;;;13.53;76.71;101919.19;5073067;28;20047;-57
2022/06/13 01:28:11;;;;;;;24.00;12.95;;;;;;;13.52;76.43;101915.56;5091003;28;20131;-55
2022/06/13 01:31:09;;;;;;;23.13;13.10;;;;;;;13.52;76.21;101909.19;5079201;28;20060;-56
2022/06/13 01:33:59;;;;;;;22.15;13.10;;;;;;;13.51;76.24;101916.69;5070829;28;20424;-57
2022/06/13 01:36:49;;;;;;;23.45;12.90;;;;;;;13.51;75.56;101922.25;5070809;28;20032;-56
2022/06/13 01:39:39;;;;;;;21.05;13.20;;;;;;;13.39;76.34;101919.13;5071090;28;20028;-56
2022/06/13 01:42:26;;;;;;;23.23;13.05;;;;;;;13.35;76.01;101918.00;5089496;28;20035;-55
2022/06/13 01:44:57;;;;;;;25.02;13.52;;;;;;;13.26;76.71;101892.88;5087387;28;20402;-55
2022/06/13 01:47:32;;;;;;;23.02;12.52;;;;;;;13.26;76.40;101893.69;5070784;28;20025;-57
2022/06/13 01:50:21;;;;;;;22.95;13.32;;;;;;;13.31;76.31;101898.34;5070812;28;20039;-56
2022/06/13 01:53:42;;;;;;;22.85;13.25;;;;;;;13.34;76.15;101889.41;5071044;28;20165;-57
2022/06/13 01:56:15;;;;;;;25.02;13.80;;;;;;;13.32;76.48;101901.97;5060782;28;20498;-56
2022/06/13 01:58:51;;;;;;;23.08;13.55;;;;;;;13.25;76.53;101894.81;5090627;28;20044;-55
2022/06/13 02:01:29;;;;;;;26.10;13.70;;;;;;;13.21;76.64;101902.09;5089899;28;20054;-56
2022/06/13 02:04:33;;;;;;;20.58;12.73;;;;;;;13.24;76.71;101909.00;5091349;28;20031;-58
2022/06/13 02:07:11;;;;;;;24.48;13.55;;;;;;;13.17;77.01;101900.22;5070698;28;20028;-56
2022/06/13 02:09:44;;;;;;;24.67;13.85;;;;;;;13.21;77.27;101904.03;5070830;28;20036;-56
2022/06/13 02:12:12;;;;;;;23.60;13.20;;;;;;;13.30;77.22;101902.25;5089374;28;20039;-57
2022/06/13 02:14:44;;;;;;;23.98;13.95;;;;;;;13.27;77.20;101900.06;5089914;28;20565;-57
2022/06/13 02:17:17;;;;;;;24.27;12.90;;;;;;;13.32;76.97;101907.53;5089468;28;20506;-57
2022/06/13 02:20:14;;;;;;;22.70;12.95;;;;;;;13.33;77.32;101921.09;5091156;28;20038;-56
2022/06/13 02:22:43;;;;;;;23.83;13.45;;;;;;;13.27;77.63;101913.97;5090978;28;20462;-58
2022/06/13 02:25:28;;;;;;;24.70;12.77;;;;;;;13.26;77.43;101904.78;5089014;28;20112;-56
2022/06/13 02:28:12;;;;;;;23.10;13.10;;;;;;;13.26;77.28;101902.00;5090249;28;20036;-57
2022/06/13 02:30:45;;;;;;;22.85;12.60;;;;;;;13.21;77.81;101884.56;5072579;28;20316;-58
2022/06/13 02:33:19;;;;;;;23.55;13.55;;;;;;;13.26;78.21;101895.63;5070448;28;20086;-57
2022/06/13 02:35:54;;;;;;;24.95;13.77;;;;;;;13.18;78.78;101885.16;5070499;28;20064;-57
2022/06/13 02:38:33;;;;;;;22.00;12.82;;;;;;;13.21;78.86;101887.34;5070543;28;20036;-56
2022/06/13 02:41:03;;;;;;;24.20;13.60;;;;;;;13.20;79.12;101877.38;5080876;28;20487;-59
2022/06/13 02:43:46;;;;;;;23.33;13.40;;;;;;;13.35;78.87;101898.56;5090715;28;20028;-54
2022/06/13 02:46:17;;;;;;;24.38;13.60;;;;;;;13.47;78.38;101898.13;5090209;28;20445;-56
2022/06/13 02:48:54;;;;;;;22.67;13.15;;;;;;;13.38;77.89;101876.56;5090394;28;20032;-55
2022/06/13 02:51:48;;;;;;;23.58;13.13;;;;;;;13.53;78.34;101895.00;5075670;28;20451;-55
2022/06/13 02:54:19;;;;;;;22.58;13.75;;;;;;;13.53;78.22;101895.00;5077311;28;20113;-57
2022/06/13 02:57:24;;;;;;;23.52;13.95;;;;;;;13.59;78.65;101889.38;5084061;28;20478;-55
2022/06/13 03:00:06;;;;;;;27.92;13.88;;;;;;;13.59;78.24;101890.19;5090380;28;20040;-54
2022/06/13 03:03:09;;;;;;;23.88;14.27;;;;;;;13.63;78.12;101885.69;5090602;28;20138;-55
2022/06/13 03:05:52;;;;;;;26.02;13.50;;;;;;;13.60;78.29;101885.47;5090467;28;20115;-56
2022/06/13 03:08:36;;;;;;;24.75;13.63;;;;;;;13.58;79.15;101885.75;5090389;28;20024;-56
2022/06/13 03:11:05;;;;;;;24.52;13.27;;;;;;;13.59;79.13;101881.84;5087836;28;20454;-57
2022/06/13 03:13:52;;;;;;;24.67;14.00;;;;;;;13.56;78.79;101891.63;5090393;28;20036;-57
2022/06/13 03:16:24;;;;;;;21.13;13.80;;;;;;;13.57;79.33;101889.66;5087224;28;20025;-57
2022/06/13 03:18:57;;;;;;;31.15;14.95;;;;;;;13.48;79.28;101883.97;5070536;28;20336;-57
2022/06/13 03:21:33;;;;;;;25.02;14.45;;;;;;;13.46;79.64;101891.75;5070306;28;20025;-58
2022/06/13 03:24:15;;;;;;;26.00;14.35;;;;;;;13.44;79.23;101894.00;5070455;28;20040;-57
2022/06/13 03:26:48;;;;;;;27.40;14.52;;;;;;;13.41;79.69;101889.06;5077595;28;20367;-56
2022/06/13 03:29:24;;;;;;;23.90;14.02;;;;;;;13.42;79.64;101890.69;5073904;28;20379;-57
2022/06/13 03:31:58;;;;;;;24.20;13.70;;;;;;;13.37;79.80;101880.44;5090919;28;20457;-56
2022/06/13 03:34:28;;;;;;;24.27;14.95;;;;;;;13.38;79.65;101890.44;5074559;28;20032;-54
2022/06/13 03:37:01;;;;;;;24.92;14.88;;;;;;;13.37;79.82;101886.00;5073363;28;20462;-56
2022/06/13 03:39:37;;;;;;;26.88;15.10;;;;;;;13.35;79.93;101901.34;5074165;28;20039;-59
2022/06/13 03:42:08;;;;;;;24.95;15.85;;;;;;;13.24;80.19;101901.47;5087307;28;20100;-57
2022/06/13 03:44:39;;;;;;;26.08;15.23;;;;;;;13.27;80.73;101912.00;5093946;28;20100;-58
2022/06/13 03:47:21;;;;;;;25.60;15.40;;;;;;;13.23;81.15;101905.38;5092874;28;20035;-59
2022/06/13 03:50:09;;;;;;;23.38;15.18;;;;;;;13.27;80.65;101912.00;5094460;28;20028;-58
2022/06/13 03:52:41;;;;;;;28.73;16.60;;;;;;;13.27;81.46;101919.53;5093812;28;20028;-55
2022/06/13 03:55:22;;;;;;;25.27;16.27;;;;;;;13.24;81.85;101914.56;5075657;28;20051;-57
2022/06/13 03:58:25;;;;;;;26.73;15.75;;;;;;;13.27;80.98;101920.34;5073216;28;20115;-57
2022/06/13 04:01:00;;;;;;;25.65;15.23;;;;;;;13.27;81.67;101917.56;5080077;28;20032;-58
2022/06/13 04:03:27;;;;;;;27.40;15.65;;;;;;;13.27;82.13;101909.22;5073084;28;20029;-57
2022/06/13 04:06:05;;;;;;;27.52;15.15;;;;;;;13.25;81.96;101919.81;5072779;28;20107;-56
2022/06/13 04:08:35;;;;;;;28.23;16.02;;;;;;;13.17;82.01;101914.91;5074024;28;20028;-54
2022/06/13 04:11:16;;;;;;;26.35;15.07;;;;;;;13.14;82.29;101918.28;5080434;28;20374;-54
2022/06/13 04:14:13;;;;;;;27.08;15.80;;;;;;;13.19;82.21;101928.50;5082050;28;20386;-55
2022/06/13 04:16:50;;;;;;;30.08;15.60;;;;;;;13.15;82.47;101927.47;5085386;28;20024;-53
2022/06/13 04:19:27;;;;;;;25.10;16.25;;;;;;;13.16;83.25;101937.44;5082250;28;20176;-56
2022/06/13 04:22:17;;;;;;;28.35;16.08;;;;;;;13.18;82.81;101930.47;5079264;28;20036;-57
2022/06/13 04:25:13;;;;;;;26.50;15.90;;;;;;;13.18;83.47;101941.59;5079689;28;20119;-57
2022/06/13 04:28:01;;;;;;;28.20;16.23;;;;;;;13.19;83.10;101936.84;5072854;28;20047;-55
2022/06/13 04:30:30;;;;;;;29.70;15.95;;;;;;;13.27;83.38;101945.34;5083664;28;20040;-56
2022/06/13 04:33:12;;;;;;;26.65;14.98;;;;;;;13.30;82.92;101941.16;5072308;28;20036;-57
2022/06/13 04:35:39;;;;;;;26.30;15.65;;;;;;;13.33;83.37;101945.28;5071787;28;20033;-58
2022/06/13 04:38:09;;;;;;;25.13;15.65;;;;;;;13.29;83.46;101933.13;5073993;28;20120;-57
2022/06/13 04:40:39;;;;;;;30.00;15.90;;;;;;;13.41;83.34;101945.47;5091435;28;20047;-57
2022/06/13 04:43:08;;;;;;;26.67;15.95;;;;;;;13.46;83.23;101938.22;5091499;28;20027;-57
2022/06/13 04:45:48;;;;;;;28.42;16.70;;;;;;;13.49;82.99;101934.81;5092010;28;20142;-57
2022/06/13 04:48:14;;;;;;;27.95;17.13;;;;;;;13.58;83.35;101946.91;5083894;28;20057;-57
2022/06/13 04:50:44;;;;;;;30.00;16.63;;;;;;;13.64;83.42;101942.94;5072262;28;20155;-57
2022/06/13 04:53:18;;;;;;;29.40;16.30;;;;;;;13.66;83.09;101942.63;5072072;28;20032;-58
2022/06/13 04:55:46;;;;;;;26.40;15.68;;;;;;;13.62;83.27;101922.13;5079927;28;20059;-57
2022/06/13 04:58:26;;;;;;;26.38;16.60;;;;;;;13.79;83.29;101946.63;5077128;28;20052;-56
2022/06/13 05:01:02;;;;;;;28.10;16.77;;;;;;;13.89;83.15;101949.25;5075769;28;20082;-56
2022/06/13 05:03:31;;;;;;;26.65;16.40;;;;;;;13.89;83.05;101940.91;5089534;28;20048;-57
2022/06/13 05:06:01;;;;;;;27.02;16.48;;;;;;;13.94;82.99;101951.13;5074963;28;20029;-57
2022/06/13 05:08:30;;;;;;;27.00;15.23;;;;;;;14.03;82.06;101943.75;5076164;28;20152;-55
2022/06/13 05:11:06;;;;;;;28.67;15.65;;;;;;;14.17;82.12;101947.38;5091154;28;20031;-56
2022/06/13 05:13:31;;;;;;;28.40;16.80;;;;;;;14.28;81.47;101950.84;5090700;28;20391;-56
2022/06/13 05:16:44;;;;;;;28.08;16.50;;;;;;;14.43;80.88;101955.31;5080309;28;20039;-58
2022/06/13 05:19:25;;;;;;;27.73;15.65;;;;;;;14.50;80.50;101964.09;5082652;28;20155;-56
2022/06/13 05:22:18;;;;;;;29.35;16.55;;;;;;;14.54;80.15;101961.53;5072129;28;20496;-57
2022/06/13 05:25:02;;;;;;;28.42;16.30;;;;;;;14.62;80.20;101969.19;5072303;28;20494;-55
2022/06/13 05:27:27;;;;;;;29.83;16.63;;;;;;;14.68;79.61;101966.34;5076428;28;20044;-55
2022/06/13 05:29:52;;;;;;;27.67;15.70;;;;;;;14.74;79.58;101974.28;5089382;28;20442;-57
2022/06/13 05:32:21;;;;;;;27.15;15.32;;;;;;;14.82;79.27;101972.75;5085567;28;20024;-55
2022/06/13 05:34:47;;;;;;;26.88;15.52;;;;;;;14.85;79.36;101974.09;5078520;28;20353;-55
2022/06/13 05:37:13;;;;;;;26.48;15.60;;;;;;;14.95;78.66;101976.69;5082760;28;20115;-54
2022/06/13 05:39:39;;;;;;;27.33;16.20;;;;;;;15.01;78.07;101978.25;5074159;28;20550;-56
2022/06/13 05:42:05;;;;;;;25.63;14.43;;;;;;;15.11;77.60;101975.22;5079415;28;20024;-56
2022/06/13 05:44:31;;;;;;;26.40;14.35;;;;;;;15.19;77.21;101976.47;5081469;28;20197;-57
2022/06/13 05:46:56;;;;;;;26.55;14.23;;;;;;;15.28;76.66;101982.16;5071276;28;20128;-55
2022/06/13 05:49:22;;;;;;;26.25;14.18;;;;;;;15.34;75.51;101986.50;5068662;28;20566;-54
2022/06/13 05:51:47;;;;;;;24.55;13.93;;;;;;;15.28;75.60;101994.13;5070561;28;20025;-56
2022/06/13 05:54:13;;;;;;;26.90;13.80;;;;;;;15.29;75.56;101989.41;5070746;28;20036;-58
2022/06/13 05:56:39;;;;;;;25.92;13.00;;;;;;;15.33;75.62;101992.38;5071028;28;20089;-58
2022/06/13 05:59:05;;;;;;;24.08;12.90;;;;;;;15.49;74.70;102002.06;5070582;28;20024;-57
2022/06/13 06:01:34;;;;;;;23.35;12.88;;;;;;;15.57;73.68;102003.31;5070053;28;20104;-59
2022/06/13 06:03:59;;;;;;;27.42;13.43;;;;;;;15.63;73.13;102004.84;5069222;28;20036;-58
2022/06/13 06:06:27;;;;;;;25.95;13.13;;;;;;;15.66;73.62;102004.22;5069985;28;20166;-58
2022/06/13 06:08:56;;;;;;;25.02;12.77;;;;;;;15.82;72.50;102012.25;5070211;28;20044;-58
2022/06/13 06:11:26;;;;;;;24.80;12.43;;;;;;;15.93;72.01;102016.47;5070602;28;20043;-57
2022/06/13 06:13:51;;;;;;;22.60;13.00;;;;;;;15.96;72.03;102023.41;5070518;28;20107;-57
2022/06/13 06:16:19;;;;;;;25.15;13.00;;;;;;;16.07;71.54;102027.59;5070008;28;20071;-54
2022/06/13 06:18:46;;;;;;;26.13;12.43;;;;;;;16.15;72.11;102026.03;5069872;28;20124;-58
2022/06/13 06:21:11;;;;;;;24.27;12.80;;;;;;;16.22;72.66;102027.22;5069540;28;20033;-56
2022/06/13 06:23:37;;;;;;;23.10;12.70;;;;;;;16.27;70.76;102029.06;5069577;28;20016;-50
2022/06/13 06:26:03;;;;;;;23.23;12.93;;;;;;;16.15;71.13;102034.41;5069270;28;20131;-55
2022/06/13 06:28:28;;;;;;;25.45;12.70;;;;;;;16.10;69.99;102034.53;5069642;28;20059;-57
2022/06/13 06:30:56;;;;;;;22.92;11.90;;;;;;;15.90;69.90;102033.84;5069992;28;20435;-56
2022/06/13 06:33:23;;;;;;;27.25;12.02;;;;;;;15.87;69.86;102049.25;5070468;28;20025;-59
2022/06/13 06:35:48;;;;;;;21.30;11.30;;;;;;;15.85;68.62;102050.72;5070394;28;20411;-55
2022/06/13 06:38:14;;;;;;;23.48;11.05;;;;;;;15.79;67.91;102040.75;5072872;28;20020;-55
2022/06/13 06:40:40;;;;;;;21.27;10.73;;;;;;;15.70;66.42;102043.47;5078329;28;20035;-54
2022/06/13 06:43:06;;;;;;;20.38;9.73;;;;;;;15.73;67.40;102043.69;5072656;28;20328;-56
2022/06/13 06:45:32;;;;;;;20.58;9.98;;;;;;;15.81;65.10;102050.50;5076880;28;20107;-57
2022/06/13 06:47:58;;;;;;;21.50;9.65;;;;;;;15.89;65.12;102060.09;5084946;28;20029;-51
2022/06/13 06:50:27;;;;;;;19.67;9.50;;;;;;;15.99;64.67;102054.28;5080788;28;20033;-55
2022/06/13 06:52:53;;;;;;;20.73;10.00;;;;;;;15.99;64.69;102062.66;5087973;28;20046;-57
2022/06/13 07:00:50;;;;;;;17.65;8.90;;;;;;;16.08;62.18;102067.50;5091533;28;20043;-56
2022/06/13 07:03:17;;;;;;;20.50;9.10;;;;;;;16.06;61.32;102071.44;5091609;28;20055;-55
2022/06/13 07:05:43;;;;;;;19.10;9.15;;;;;;;16.08;60.41;102062.75;5092085;28;20043;-54
2022/06/13 07:08:08;;;;;;;21.92;9.30;;;;;;;16.05;60.61;102067.00;5092188;28;20224;-56
2022/06/13 07:10:34;;;;;;;21.38;9.25;;;;;;;16.12;61.07;102065.75;5092337;28;20089;-56
2022/06/13 07:12:59;;;;;;;18.10;8.85;;;;;;;16.20;61.13;102062.19;5091658;28;20038;-56
2022/06/13 07:15:25;;;;;;;18.80;9.00;;;;;;;16.23;57.93;102064.38;5091626;28;20032;-56
2022/06/13 07:17:51;;;;;;;17.77;8.48;;;;;;;16.14;58.25;102063.47;5091740;28;20059;-56
2022/06/13 07:20:16;;;;;;;15.60;8.52;;;;;;;16.17;58.20;102055.28;5091841;28;20028;-55
2022/06/13 07:22:47;;;;;;;18.95;8.65;;;;;;;16.06;58.30;102054.69;5092683;28;20036;-56
2022/06/13 07:25:25;;;;;;;17.35;8.77;;;;;;;16.24;58.08;102060.44;5092043;28;20036;-55
2022/06/13 07:27:51;;;;;;;18.02;8.43;;;;;;;16.41;57.46;102075.69;5091831;28;20496;-55
2022/06/13 07:30:21;;;;;;;16.80;8.43;;;;;;;16.45;56.89;102069.16;5091987;28;20036;-57
2022/06/13 07:32:47;;;;;;;17.60;8.25;;;;;;;16.48;57.18;102068.50;5092272;28;20028;-57
2022/06/13 07:35:15;;;;;;;16.15;8.60;;;;;;;16.52;57.05;102069.53;5091964;28;20546;-56
2022/06/13 07:40:25;;;;;;;20.35;9.13;;;;;;;16.69;56.31;102066.03;5092227;28;20046;-55
2022/06/13 07:42:53;;;;;;;19.40;8.75;;;;;;;16.75;56.76;102065.91;5092122;28;20032;-57
2022/06/13 07:45:22;;;;;;;17.08;8.80;;;;;;;16.92;56.70;102070.78;5091934;28;20053;-56
2022/06/13 07:47:51;;;;;;;18.65;9.15;;;;;;;16.98;56.33;102081.53;5092078;28;20032;-56
2022/06/13 07:50:20;;;;;;;19.58;9.05;;;;;;;16.93;56.55;102070.47;5089672;28;20024;-57
2022/06/13 07:52:49;;;;;;;18.80;9.00;;;;;;;17.13;55.98;102073.88;5091343;28;20093;-56
2022/06/13 07:55:15;;;;;;;21.85;9.10;;;;;;;17.05;56.54;102088.63;5091821;28;20123;-60
2022/06/13 07:57:40;;;;;;;20.48;8.93;;;;;;;16.99;55.89;102086.00;5091662;28;20107;-59
2022/06/13 08:00:08;;;;;;;18.27;8.68;;;;;;;16.99;56.15;102083.19;5091551;28;20034;-57
2022/06/13 08:02:36;;;;;;;18.52;8.80;;;;;;;17.17;56.21;102094.47;5091442;28;20099;-56
2022/06/13 08:05:01;;;;;;;16.73;9.32;;;;;;;17.33;56.16;102092.06;5091163;28;20132;-56
2022/06/13 08:07:27;;;;;;;17.10;9.20;;;;;;;17.55;55.97;102101.53;5091525;28;20506;-57
2022/06/13 08:09:52;;;;;;;20.25;9.50;;;;;;;17.72;55.27;102106.38;5091608;28;20035;-56
2022/06/13 08:12:20;;;;;;;19.48;9.30;;;;;;;17.63;55.57;102111.91;5091273;28;20024;-57
2022/06/13 08:14:47;;;;;;;20.55;9.52;;;;;;;17.56;54.78;102103.19;5091338;28;20120;-56
2022/06/13 08:17:14;;;;;;;19.42;8.95;;;;;;;17.47;55.10;102103.16;5091307;28;20028;-56
2022/06/13 08:19:40;;;;;;;18.73;9.15;;;;;;;17.49;53.45;102112.03;5091447;28;20053;-58
2022/06/13 08:22:05;;;;;;;19.45;9.00;;;;;;;17.62;52.75;102113.06;5091196;28;20016;-57
2022/06/13 08:24:30;;;;;;;19.17;9.40;;;;;;;17.93;53.04;102113.03;5091132;28;20036;-57
2022/06/13 08:26:56;;;;;;;17.85;9.25;;;;;;;18.03;53.12;102114.69;5090732;28;20499;-56
2022/06/13 08:29:21;;;;;;;18.13;9.30;;;;;;;18.01;53.04;102117.00;5090860;28;20032;-56
2022/06/13 08:31:46;;;;;;;18.88;9.63;;;;;;;17.97;52.63;102124.41;5091053;28;20096;-57
2022/06/13 08:34:12;;;;;;;20.13;9.38;;;;;;;17.99;52.84;102122.13;5091122;28;20024;-57
2022/06/13 08:36:37;;;;;;;16.67;8.50;;;;;;;17.94;52.57;102141.81;5090137;28;20453;-57
2022/06/13 08:39:03;;;;;;;18.77;8.43;;;;;;;17.68;52.58;102136.13;5090804;28;20111;-57
2022/06/13 08:41:50;;;;;;;17.30;8.75;;;;;;;17.74;54.09;102132.88;5090826;28;20325;-56
2022/06/13 08:44:30;;;;;;;15.23;8.15;;;;;;;18.00;54.21;102123.75;5090846;28;20504;-55
2022/06/13 08:47:10;;;;;;;17.35;8.50;;;;;;;18.18;51.89;102146.22;5090669;28;20535;-55
2022/06/13 08:49:43;;;;;;;14.15;8.40;;;;;;;18.05;52.15;102128.38;5089118;28;20024;-55
2022/06/13 08:52:30;;;;;;;15.97;8.20;;;;;;;18.17;52.51;102120.16;5091043;28;20031;-57
2022/06/13 08:55:12;;;;;;;15.73;8.18;;;;;;;18.06;50.24;102144.84;5090977;28;20357;-56
2022/06/13 08:57:45;;;;;;;14.70;8.32;;;;;;;18.01;50.29;102127.38;5090708;28;20032;-56
2022/06/13 09:00:17;;;;;;;16.58;8.70;;;;;;;18.21;50.10;102132.38;5091220;28;20049;-56
2022/06/13 09:03:00;;;;;;;12.95;7.90;;;;;;;18.20;49.95;102147.53;5090821;28;20054;-57
2022/06/13 09:05:36;;;;;;;15.07;8.00;;;;;;;18.13;51.14;102157.53;5090800;28;20028;-55
2022/06/13 09:08:33;;;;;;;14.38;8.10;;;;;;;18.05;51.92;102148.81;5090575;28;20032;-58
2022/06/13 09:11:06;;;;;;;16.33;7.95;;;;;;;17.99;50.91;102147.31;5088293;28;20426;-57
2022/06/13 09:13:37;;;;;;;14.75;8.00;;;;;;;18.06;50.93;102158.88;5090675;28;20071;-57
2022/06/13 09:16:09;;;;;;;14.13;8.40;;;;;;;18.02;50.66;102174.66;5090391;28;20039;-56
2022/06/13 09:18:48;;;;;;;17.23;8.23;;;;;;;17.80;51.30;102167.13;5090492;28;20076;-57
2022/06/13 09:21:22;;;;;;;15.07;8.05;;;;;;;17.63;52.05;102167.88;5090461;28;20368;-57
2022/06/13 09:24:06;;;;;;;14.20;7.70;;;;;;;17.70;51.92;102173.03;5089588;28;20099;-57
2022/06/13 09:26:40;;;;;;;16.85;8.07;;;;;;;17.95;52.41;102157.47;5089524;28;20055;-56
2022/06/13 09:29:26;;;;;;;18.98;8.70;;;;;;;18.19;51.79;102179.47;5090165;28;20051;-57
2022/06/13 09:32:01;;;;;;;15.52;8.13;;;;;;;18.03;51.54;102170.69;5089989;28;20032;-57
2022/06/13 09:34:52;;;;;;;15.77;8.10;;;;;;;17.84;52.14;102170.13;5089819;28;20315;-57
2022/06/13 09:37:27;;;;;;;16.10;7.60;;;;;;;17.84;51.67;102156.13;5089713;28;20047;-56
2022/06/13 09:39:53;;;;;;;14.68;7.20;;;;;;;18.13;50.02;102178.00;5089995;28;20115;-56
2022/06/13 09:42:42;;;;;;;11.32;7.32;;;;;;;18.40;48.76;102167.66;5089587;28;20055;-56
2022/06/13 09:45:37;;;;;;;13.90;7.68;;;;;;;18.96;49.91;102172.63;5082823;28;20398;-57
2022/06/13 09:48:29;;;;;;;15.82;8.30;;;;;;;19.15;46.99;102175.91;5064438;28;20137;-57
2022/06/13 09:51:22;;;;;;;12.32;7.88;;;;;;;19.07;47.35;102171.13;5071408;28;20028;-57
2022/06/13 09:54:01;;;;;;;13.38;8.10;;;;;;;18.84;47.83;102188.09;5071546;28;20021;-56
2022/06/13 09:56:36;;;;;;;15.00;7.63;;;;;;;18.57;48.59;102189.25;5071315;28;20025;-57
2022/06/13 09:59:07;;;;;;;18.00;7.75;;;;;;;18.11;49.54;102183.09;5071315;28;20432;-56
2022/06/13 10:01:43;;;;;;;15.82;7.72;;;;;;;18.05;48.05;102192.75;5071319;28;20024;-57
2022/06/13 10:04:14;;;;;;;14.65;7.50;;;;;;;18.08;47.95;102180.94;5071292;28;20165;-56
2022/06/13 10:06:47;;;;;;;14.02;7.00;;;;;;;18.38;47.88;102176.38;5071195;28;20073;-55
2022/06/13 10:09:43;;;;;;;12.80;7.20;;;;;;;18.38;46.70;102189.56;5071067;28;20406;-58
2022/06/13 10:12:35;;;;;;;14.38;7.97;;;;;;;18.38;47.18;102192.38;5071095;28;20160;-58
2022/06/13 10:15:25;;;;;;;15.45;7.70;;;;;;;18.46;47.25;102201.94;5071130;28;20340;-57
2022/06/13 10:18:08;;;;;;;16.52;7.32;;;;;;;18.44;47.46;102198.63;5071193;28;20063;-59
2022/06/13 10:20:49;;;;;;;15.47;7.60;;;;;;;18.22;47.88;102194.78;5071172;28;20445;-57
2022/06/13 10:23:37;;;;;;;14.55;7.72;;;;;;;17.96;48.08;102195.56;5069107;28;20133;-57
2022/06/13 10:26:29;;;;;;;12.40;7.53;;;;;;;18.10;47.97;102195.44;5066842;28;20453;-57
2022/06/13 10:29:11;;;;;;;15.75;7.50;;;;;;;18.23;46.13;102194.47;5068105;28;20090;-55
2022/06/13 10:31:57;;;;;;;12.00;7.45;;;;;;;18.45;46.10;102192.69;5067868;28;20151;-56
2022/06/13 10:34:44;;;;;;;12.02;7.50;;;;;;;18.61;46.05;102201.47;5068661;28;20060;-56
2022/06/13 10:37:30;;;;;;;14.35;7.30;;;;;;;18.35;46.58;102216.25;5071512;28;20031;-56
2022/06/13 10:39:58;;;;;;;13.07;7.45;;;;;;;18.06;46.82;102202.81;5073578;28;20035;-56
2022/06/13 10:42:28;;;;;;;13.50;7.45;;;;;;;18.10;47.29;102203.84;5080786;28;20035;-56
2022/06/13 10:44:54;;;;;;;14.05;7.30;;;;;;;18.29;47.33;102185.94;5074995;28;20068;-55
2022/06/13 10:47:37;;;;;;;15.57;7.40;;;;;;;18.67;46.79;102193.72;5071367;28;20032;-57
2022/06/13 10:50:09;;;;;;;11.20;7.20;;;;;;;18.91;45.49;102195.19;5071262;28;20036;-56
2022/06/13 10:52:43;;;;;;;16.33;7.40;;;;;;;19.11;44.34;102207.75;5071330;28;20024;-56
2022/06/13 10:55:11;;;;;;;12.18;7.38;;;;;;;19.36;45.15;102200.44;5071637;28;20496;-56
2022/06/13 10:57:51;;;;;;;13.07;7.72;;;;;;;19.57;45.38;102199.72;5071078;28;20025;-54
2022/06/13 11:00:23;;;;;;;14.50;8.05;;;;;;;19.83;44.42;102187.59;5071228;28;20550;-57
2022/06/13 11:02:50;;;;;;;15.50;8.20;;;;;;;19.78;43.91;102197.81;5071321;28;20036;-55
2022/06/13 11:05:23;;;;;;;13.73;8.10;;;;;;;19.63;43.61;102189.97;5071107;28;20108;-56
2022/06/13 11:07:57;;;;;;;15.23;8.20;;;;;;;19.45;45.45;102206.03;5071189;28;20067;-56
2022/06/13 11:10:36;;;;;;;15.40;8.35;;;;;;;19.28;45.26;102216.13;5070956;28;20043;-55
2022/06/13 11:13:05;;;;;;;13.88;7.53;;;;;;;19.01;44.41;102225.72;5069564;28;20036;-56
2022/06/13 11:24:46;;;;;;;14.98;7.40;;;;;;;19.50;42.89;102208.69;5069261;28;20181;-55
2022/06/13 11:27:39;;;;;;;13.68;7.32;;;;;;;19.29;43.15;102212.19;5034361;28;1023001;-56
2022/06/13 11:30:41;;;;;;;13.27;7.72;;;;;;;19.46;43.77;102200.06;5069978;28;20076;-56
2022/06/13 11:33:15;;;;;;;13.07;7.40;;;;;;;19.48;43.68;102208.19;5072026;28;20083;-55
2022/06/13 11:35:50;;;;;;;16.10;7.60;;;;;;;19.01;45.05;102206.09;5071782;28;20053;-55
2022/06/13 11:38:27;;;;;;;12.88;7.20;;;;;;;18.99;42.53;102212.06;5071785;28;20043;-56
2022/06/13 11:41:04;;;;;;;13.77;7.60;;;;;;;18.65;43.83;102196.84;5071400;28;20037;-55
2022/06/13 11:44:00;;;;;;;13.23;7.38;;;;;;;18.79;44.49;102204.25;5071545;28;20427;-55
2022/06/13 11:46:26;;;;;;;16.25;7.95;;;;;;;19.23;44.40;102204.25;5070957;28;20028;-56
2022/06/13 11:48:51;;;;;;;12.23;7.72;;;;;;;19.59;43.64;102195.44;5079218;28;20361;-55
2022/06/13 11:51:22;;;;;;;15.60;8.45;;;;;;;19.31;44.02;102218.28;5091539;28;20096;-57
2022/06/13 11:53:48;;;;;;;16.63;8.70;;;;;;;19.20;45.18;102210.53;5091589;28;20150;-54
2022/06/13 11:56:24;;;;;;;16.50;8.85;;;;;;;19.08;46.00;102212.03;5091495;28;20047;-56
2022/06/13 11:58:52;;;;;;;15.43;8.20;;;;;;;18.84;47.01;102209.72;5091320;28;20063;-56
2022/06/13 12:01:31;;;;;;;13.63;8.35;;;;;;;18.64;47.49;102220.44;5091345;28;20032;-56